createdAt,value
2022-10-09T00:01:44.782Z,3.88
2022-10-09T00:04:11.881Z,3.78
2022-10-09T00:06:39.411Z,4.13
2022-10-09T00:09:06.554Z,3.85
2022-10-09T00:11:34.638Z,4.00
2022-10-09T00:14:02.092Z,4.03
2022-10-09T00:16:29.545Z,4.60
2022-10-09T00:18:56.722Z,4.25
2022-10-09T00:21:28.482Z,5.15
2022-10-09T00:23:57.414Z,5.30
2022-10-09T00:26:24.817Z,4.30
2022-10-09T00:28:51.993Z,4.50
2022-10-09T00:31:19.845Z,4.80
2022-10-09T00:33:47.176Z,4.40
2022-10-09T00:36:16.061Z,4.50
2022-10-09T00:38:43.466Z,4.78
2022-10-09T00:41:13.370Z,4.13
2022-10-09T00:43:40.445Z,4.53
2022-10-09T00:46:07.783Z,4.65
2022-10-09T00:48:34.907Z,4.18
2022-10-09T00:51:02.656Z,4.85
2022-10-09T00:53:30.872Z,4.80
2022-10-09T00:55:58.506Z,4.70
2022-10-09T00:58:25.948Z,5.57
2022-10-09T01:00:53.566Z,4.88
2022-10-09T01:03:20.882Z,4.93
2022-10-09T01:05:50.738Z,4.60
2022-10-09T01:08:27.706Z,4.70
2022-10-09T01:11:00.142Z,5.50
2022-10-09T01:13:36.207Z,4.63
2022-10-09T01:16:12.805Z,5.10
2022-10-09T01:18:47.693Z,4.93
2022-10-09T01:21:20.461Z,4.53
2022-10-09T01:26:17.573Z,5.60
2022-10-09T01:28:47.006Z,5.00
2022-10-09T01:31:14.915Z,5.28
2022-10-09T01:33:42.317Z,5.35
2022-10-09T01:36:10.639Z,5.40
2022-10-09T01:38:39.811Z,5.25
2022-10-09T01:41:08.837Z,5.72
2022-10-09T01:43:35.930Z,5.30
2022-10-09T01:46:21.695Z,5.22
2022-10-09T01:48:53.715Z,5.75
2022-10-09T01:51:22.562Z,5.07
2022-10-09T01:53:51.901Z,5.85
2022-10-09T01:56:21.694Z,5.60
2022-10-09T01:58:59.981Z,6.07
2022-10-09T02:01:31.903Z,6.03
2022-10-09T02:04:00.362Z,5.57
2022-10-09T02:06:28.952Z,5.30
2022-10-09T02:08:57.800Z,6.25
2022-10-09T02:11:26.912Z,5.70
2022-10-09T02:13:54.158Z,5.40
2022-10-09T02:16:36.782Z,5.63
2022-10-09T02:19:08.612Z,5.65
2022-10-09T02:21:42.147Z,5.03
2022-10-09T02:24:13.961Z,5.45
2022-10-09T02:26:41.490Z,5.70
2022-10-09T02:29:08.698Z,5.60
2022-10-09T02:31:37.702Z,5.63
2022-10-09T02:34:06.447Z,5.70
2022-10-09T02:36:34.089Z,5.38
2022-10-09T02:39:01.545Z,5.10
2022-10-09T02:41:28.684Z,5.22
2022-10-09T02:43:56.078Z,5.28
2022-10-09T02:46:23.595Z,5.03
2022-10-09T02:48:50.797Z,5.20
2022-10-09T02:51:18.015Z,5.32
2022-10-09T02:53:45.488Z,5.13
2022-10-09T02:56:12.681Z,5.40
2022-10-09T02:58:40.183Z,5.30
2022-10-09T03:01:07.745Z,5.55
2022-10-09T03:03:34.984Z,5.38
2022-10-09T03:06:05.249Z,5.63
2022-10-09T03:08:32.383Z,4.85
2022-10-09T03:10:59.476Z,5.07
2022-10-09T03:13:26.615Z,5.28
2022-10-09T03:15:53.848Z,5.50
2022-10-09T03:18:21.205Z,5.63
2022-10-09T03:20:48.429Z,5.20
2022-10-09T03:23:15.500Z,4.53
2022-10-09T03:25:42.587Z,4.70
2022-10-09T03:28:09.753Z,4.82
2022-10-09T03:30:41.071Z,4.63
2022-10-09T03:33:08.147Z,5.03
2022-10-09T03:35:35.219Z,4.53
2022-10-09T03:38:02.301Z,4.88
2022-10-09T03:40:29.414Z,4.75
2022-10-09T03:42:56.498Z,4.50
2022-10-09T03:45:23.556Z,5.30
2022-10-09T03:47:50.631Z,4.85
2022-10-09T03:50:17.774Z,5.00
2022-10-09T03:52:44.969Z,4.35
2022-10-09T03:55:12.067Z,4.80
2022-10-09T03:57:39.156Z,4.30
2022-10-09T04:00:07.107Z,4.43
2022-10-09T04:02:34.774Z,4.80
2022-10-09T04:05:01.959Z,4.95
2022-10-09T04:07:29.106Z,4.63
2022-10-09T04:09:56.353Z,4.60
2022-10-09T04:12:23.464Z,4.50
2022-10-09T04:14:50.674Z,4.30
2022-10-09T04:17:17.952Z,4.97
2022-10-09T04:19:45.068Z,4.40
2022-10-09T04:22:12.194Z,4.88
2022-10-09T04:24:39.283Z,4.68
2022-10-09T04:27:06.369Z,5.10
2022-10-09T04:29:33.435Z,4.82
2022-10-09T04:32:00.629Z,5.07
2022-10-09T04:34:27.708Z,4.88
2022-10-09T04:36:54.859Z,4.50
2022-10-09T04:39:21.927Z,4.22
2022-10-09T04:41:49.032Z,4.43
2022-10-09T04:44:16.177Z,5.32
2022-10-09T04:46:43.270Z,5.38
2022-10-09T04:49:14.258Z,5.60
2022-10-09T04:51:41.669Z,5.85
2022-10-09T04:54:08.750Z,5.32
2022-10-09T04:56:35.810Z,5.55
2022-10-09T04:59:02.911Z,5.82
2022-10-09T05:01:34.205Z,5.55
2022-10-09T05:04:04.269Z,5.70
2022-10-09T05:06:31.338Z,5.57
2022-10-09T05:08:58.403Z,5.68
2022-10-09T05:11:25.956Z,6.15
2022-10-09T05:13:54.068Z,5.65
2022-10-09T05:16:22.816Z,5.53
2022-10-09T05:18:51.341Z,5.45
2022-10-09T05:21:18.586Z,5.88
2022-10-09T05:23:45.894Z,4.97
2022-10-09T05:26:14.834Z,6.10
2022-10-09T05:28:42.103Z,6.30
2022-10-09T05:31:09.706Z,6.18
2022-10-09T05:33:37.211Z,6.60
2022-10-09T05:36:05.801Z,6.22
2022-10-09T05:38:34.726Z,5.97
2022-10-09T05:41:03.590Z,5.90
2022-10-09T05:43:31.951Z,5.40
2022-10-09T05:46:09.446Z,5.13
2022-10-09T05:48:37.017Z,5.97
2022-10-09T05:51:08.600Z,5.25
2022-10-09T05:53:35.742Z,5.47
2022-10-09T05:56:18.021Z,5.43
2022-10-09T05:58:45.789Z,5.40
2022-10-09T06:01:13.044Z,6.25
2022-10-09T06:03:40.199Z,7.82
2022-10-09T06:06:08.712Z,8.95
2022-10-09T06:08:36.653Z,6.32
2022-10-09T06:11:12.998Z,6.25
2022-10-09T06:13:40.618Z,6.03
2022-10-09T06:16:07.807Z,5.22
2022-10-09T06:18:34.985Z,5.72
2022-10-09T06:21:02.937Z,4.80
2022-10-09T06:23:31.470Z,4.07
2022-10-09T06:26:00.220Z,4.28
2022-10-09T06:28:28.978Z,4.47
2022-10-09T06:31:01.201Z,4.00
2022-10-09T06:33:30.031Z,4.00
2022-10-09T06:36:09.399Z,3.80
2022-10-09T06:38:37.570Z,3.53
2022-10-09T06:41:06.158Z,3.95
2022-10-09T06:43:33.510Z,3.65
2022-10-09T06:46:01.266Z,3.60
2022-10-09T06:48:32.401Z,3.60
2022-10-09T06:51:09.854Z,3.70
2022-10-09T06:53:38.209Z,3.80
2022-10-09T06:56:05.569Z,4.20
2022-10-09T06:58:32.831Z,4.53
2022-10-09T07:01:04.194Z,4.00
2022-10-09T07:03:31.329Z,3.80
2022-10-09T07:06:10.572Z,4.00
2022-10-09T07:08:38.407Z,4.07
2022-10-09T07:11:09.683Z,3.67
2022-10-09T07:13:36.836Z,3.88
2022-10-09T07:16:05.116Z,4.18
2022-10-09T07:18:34.006Z,3.83
2022-10-09T07:21:02.190Z,3.50
2022-10-09T07:23:30.125Z,3.30
2022-10-09T07:25:57.354Z,3.40
2022-10-09T07:28:25.843Z,3.47
2022-10-09T07:30:53.569Z,3.58
2022-10-09T07:33:20.710Z,3.42
2022-10-09T07:35:58.117Z,3.30
2022-10-09T07:38:25.874Z,2.92
2022-10-09T07:40:53.660Z,3.40
2022-10-09T07:43:21.605Z,3.92
2022-10-09T07:45:48.776Z,3.35
2022-10-09T07:48:15.944Z,3.42
2022-10-09T07:50:43.045Z,3.35
2022-10-09T07:53:10.819Z,3.15
2022-10-09T07:55:37.916Z,2.95
2022-10-09T07:58:05.010Z,3.38
2022-10-09T08:00:32.443Z,3.60
2022-10-09T08:02:59.927Z,3.40
2022-10-09T08:05:27.018Z,2.97
2022-10-09T08:07:54.149Z,3.13
2022-10-09T08:10:21.430Z,2.83
2022-10-09T08:12:48.701Z,3.00
2022-10-09T08:15:16.113Z,3.10
2022-10-09T08:17:43.306Z,2.97
2022-10-09T08:20:10.476Z,3.20
2022-10-09T08:22:37.784Z,2.90
2022-10-09T08:25:05.147Z,2.42
2022-10-09T08:27:32.252Z,3.08
2022-10-09T08:29:59.350Z,2.58
2022-10-09T08:32:26.448Z,2.85
2022-10-09T08:34:53.535Z,2.42
2022-10-09T08:37:20.751Z,3.00
2022-10-09T08:39:47.845Z,3.05
2022-10-09T08:42:37.689Z,2.83
2022-10-09T08:45:04.952Z,3.05
2022-10-09T08:47:51.574Z,2.80
2022-10-09T08:50:29.950Z,2.33
2022-10-09T08:53:01.278Z,2.30
2022-10-09T08:55:42.211Z,3.00
2022-10-09T08:58:14.560Z,2.50
2022-10-09T09:00:53.102Z,2.40
2022-10-09T09:03:23.198Z,2.55
2022-10-09T09:06:16.544Z,2.45
2022-10-09T09:08:46.496Z,2.30
2022-10-09T09:11:33.831Z,2.22
2022-10-09T09:14:12.199Z,2.22
2022-10-09T09:16:39.253Z,2.17
2022-10-09T09:19:34.672Z,2.30
2022-10-09T09:22:01.755Z,2.08
2022-10-09T09:24:34.653Z,2.20
2022-10-09T09:27:03.513Z,2.22
2022-10-09T09:29:36.950Z,2.60
2022-10-09T09:32:04.168Z,2.42
2022-10-09T09:34:38.610Z,2.08
2022-10-09T09:37:05.690Z,1.90
2022-10-09T09:40:30.910Z,2.03
2022-10-09T09:42:22.358Z,1.75
2022-10-09T09:44:49.648Z,1.92
2022-10-09T09:47:21.028Z,1.60
2022-10-09T09:49:55.479Z,1.88
2022-10-09T09:52:23.027Z,1.27
2022-10-09T09:54:50.246Z,1.90
2022-10-09T09:57:22.635Z,2.35
2022-10-09T09:59:49.790Z,1.70
2022-10-09T10:02:21.122Z,1.92
2022-10-09T10:04:56.524Z,2.03
2022-10-09T10:07:29.461Z,2.05
2022-10-09T10:10:04.460Z,1.70
2022-10-09T10:12:31.654Z,1.50
2022-10-09T10:14:58.858Z,1.60
2022-10-09T10:17:29.151Z,1.58
2022-10-09T10:19:56.513Z,1.58
2022-10-09T10:22:28.797Z,1.50
2022-10-09T10:24:58.153Z,1.65
2022-10-09T10:27:32.774Z,1.90
2022-10-09T10:30:01.893Z,1.55
2022-10-09T10:32:47.583Z,1.20
2022-10-09T10:35:19.661Z,1.65
2022-10-09T10:37:48.797Z,1.58
2022-10-09T10:40:37.709Z,1.33
2022-10-09T10:43:10.574Z,1.45
2022-10-09T10:45:53.458Z,1.52
2022-10-09T10:48:24.040Z,1.60
2022-10-09T10:50:59.624Z,1.20
2022-10-09T10:53:26.666Z,0.95
2022-10-09T10:55:55.998Z,1.45
2022-10-09T10:58:28.304Z,1.55
2022-10-09T11:01:07.590Z,1.58
2022-10-09T11:04:00.467Z,1.48
2022-10-09T11:06:42.837Z,1.48
2022-10-09T11:09:09.883Z,1.30
2022-10-09T11:11:49.176Z,1.40
2022-10-09T11:14:20.051Z,1.30
2022-10-09T11:17:06.735Z,1.27
2022-10-09T11:19:45.881Z,1.35
2022-10-09T11:22:36.021Z,1.40
2022-10-09T11:25:22.679Z,1.17
2022-10-09T11:27:52.808Z,1.55
2022-10-09T11:30:20.379Z,1.50
2022-10-09T11:32:58.254Z,1.30
2022-10-09T11:35:29.325Z,1.52
2022-10-09T11:38:03.404Z,1.30
2022-10-09T11:40:33.091Z,1.33
2022-10-09T11:43:22.542Z,1.80
2022-10-09T11:45:59.710Z,1.15
2022-10-09T11:48:44.571Z,1.33
2022-10-09T11:51:16.022Z,1.05
2022-10-09T11:53:43.597Z,1.55
2022-10-09T11:56:22.646Z,1.70
2022-10-09T11:59:00.245Z,1.40
2022-10-09T12:01:32.657Z,1.67
2022-10-09T12:04:05.670Z,1.10
2022-10-09T12:06:33.583Z,1.50
2022-10-09T12:09:02.500Z,1.17
2022-10-09T12:11:30.216Z,1.50
2022-10-09T12:14:01.323Z,1.50
2022-10-09T12:16:39.594Z,1.40
2022-10-09T12:19:12.838Z,1.50
2022-10-09T12:22:09.263Z,1.05
2022-10-09T12:24:41.405Z,1.48
2022-10-09T12:27:08.769Z,1.20
2022-10-09T12:29:46.432Z,1.60
2022-10-09T12:32:16.611Z,1.30
2022-10-09T12:34:48.614Z,1.30
2022-10-09T12:37:35.939Z,1.13
2022-10-09T12:40:10.572Z,1.30
2022-10-09T12:42:37.689Z,1.45
2022-10-09T12:45:04.909Z,1.25
2022-10-09T12:47:35.443Z,1.55
2022-10-09T12:50:13.218Z,1.33
2022-10-09T12:52:48.542Z,1.30
2022-10-09T12:55:16.768Z,1.40
2022-10-09T12:57:44.199Z,1.70
2022-10-09T13:00:14.591Z,1.30
2022-10-09T13:02:41.924Z,1.60
2022-10-09T13:05:09.240Z,1.70
2022-10-09T13:07:36.353Z,1.50
2022-10-09T13:10:08.403Z,1.55
2022-10-09T13:12:35.883Z,1.50
2022-10-09T13:15:07.079Z,1.50
2022-10-09T13:17:42.301Z,1.40
2022-10-09T13:20:13.438Z,1.35
2022-10-09T13:22:40.571Z,1.73
2022-10-09T13:25:07.821Z,1.40
2022-10-09T13:27:38.039Z,1.48
2022-10-09T13:30:05.938Z,1.50
2022-10-09T13:32:33.226Z,1.45
2022-10-09T13:35:00.303Z,1.52
2022-10-09T13:37:27.784Z,1.60
2022-10-09T13:39:55.454Z,1.63
2022-10-09T13:42:25.069Z,1.35
2022-10-09T13:44:52.175Z,1.77
2022-10-09T13:47:24.033Z,1.95
2022-10-09T13:49:51.626Z,1.70
2022-10-09T13:52:18.710Z,1.73
2022-10-09T13:54:45.843Z,1.83
2022-10-09T13:57:14.008Z,1.55
2022-10-09T13:59:41.098Z,1.55
2022-10-09T14:02:08.270Z,1.48
2022-10-09T14:04:35.347Z,1.52
2022-10-09T14:07:02.436Z,1.70
2022-10-09T14:09:29.634Z,1.50
2022-10-09T14:11:56.935Z,1.75
2022-10-09T14:14:24.049Z,1.58
2022-10-09T14:16:51.273Z,1.40
2022-10-09T14:19:18.686Z,1.67
2022-10-09T14:21:46.878Z,1.83
2022-10-09T14:24:14.889Z,1.95
2022-10-09T14:26:44.257Z,1.60
2022-10-09T14:29:12.653Z,1.50
2022-10-09T14:31:39.802Z,1.27
2022-10-09T14:34:06.883Z,1.50
2022-10-09T14:36:34.264Z,1.63
2022-10-09T14:39:01.344Z,2.95
2022-10-09T14:41:32.177Z,3.58
2022-10-09T14:44:01.638Z,3.92
2022-10-09T14:46:29.747Z,1.85
2022-10-09T14:48:57.913Z,2.30
2022-10-09T14:51:26.484Z,1.65
2022-10-09T14:53:58.042Z,2.00
2022-10-09T14:56:25.648Z,2.17
2022-10-09T14:58:53.160Z,1.70
2022-10-09T15:01:21.266Z,2.10
2022-10-09T15:03:48.619Z,1.92
2022-10-09T15:06:23.749Z,1.70
2022-10-09T15:08:52.106Z,1.67
2022-10-09T15:11:19.162Z,1.90
2022-10-09T15:13:46.428Z,3.30
2022-10-09T15:16:17.706Z,2.13
2022-10-09T15:18:45.544Z,2.00
2022-10-09T15:21:14.404Z,2.03
2022-10-09T15:23:41.706Z,1.75
2022-10-09T15:26:09.389Z,1.77
2022-10-09T15:28:37.461Z,2.03
2022-10-09T15:31:05.570Z,2.40
2022-10-09T15:33:32.899Z,2.22
2022-10-09T15:36:00.440Z,2.85
2022-10-09T15:38:27.595Z,1.92
2022-10-09T15:40:56.370Z,2.10
2022-10-09T15:43:24.832Z,1.98
2022-10-09T15:45:54.101Z,2.60
2022-10-09T15:48:22.297Z,4.07
2022-10-09T15:50:52.037Z,2.50
2022-10-09T15:53:20.007Z,1.98
2022-10-09T15:55:47.896Z,2.35
2022-10-09T15:58:15.561Z,1.92
2022-10-09T16:00:44.004Z,2.30
2022-10-09T16:03:11.213Z,2.55
2022-10-09T16:05:43.222Z,2.58
2022-10-09T16:08:14.080Z,2.63
2022-10-09T16:10:46.411Z,2.63
2022-10-09T16:13:15.899Z,2.92
2022-10-09T16:15:43.513Z,2.72
2022-10-09T16:18:11.525Z,2.60
2022-10-09T16:20:39.707Z,2.90
2022-10-09T16:23:07.790Z,2.67
2022-10-09T16:25:34.991Z,2.70
2022-10-09T16:28:02.148Z,2.50
2022-10-09T16:30:29.454Z,2.53
2022-10-09T16:32:57.039Z,2.58
2022-10-09T16:35:24.410Z,2.67
2022-10-09T16:37:54.333Z,2.97
2022-10-09T16:40:32.603Z,3.30
2022-10-09T16:43:08.986Z,3.63
2022-10-09T16:45:36.059Z,4.25
2022-10-09T16:48:03.171Z,4.03
2022-10-09T16:50:30.383Z,3.28
2022-10-09T16:52:57.701Z,3.13
2022-10-09T16:55:24.894Z,3.17
2022-10-09T16:57:52.237Z,3.28
2022-10-09T17:00:19.907Z,3.20
2022-10-09T17:02:47.099Z,3.22
2022-10-09T17:05:14.268Z,3.35
2022-10-09T17:07:41.379Z,3.20
2022-10-09T17:10:09.430Z,3.40
2022-10-09T17:12:37.166Z,3.65
2022-10-09T17:15:05.522Z,3.20
2022-10-09T17:17:32.759Z,3.00
2022-10-09T17:19:59.980Z,2.92
2022-10-09T17:22:27.047Z,3.88
2022-10-09T17:24:55.072Z,3.70
2022-10-09T17:27:22.171Z,4.40
2022-10-09T17:29:49.249Z,3.75
2022-10-09T17:32:16.361Z,3.55
2022-10-09T17:34:45.818Z,3.80
2022-10-09T17:37:13.601Z,3.22
2022-10-09T17:39:43.408Z,3.92
2022-10-09T17:42:11.966Z,3.28
2022-10-09T17:44:39.110Z,3.63
2022-10-09T17:47:06.315Z,3.90
2022-10-09T17:49:33.508Z,3.65
2022-10-09T17:52:00.646Z,3.47
2022-10-09T17:54:27.722Z,3.92
2022-10-09T17:56:55.083Z,3.95
2022-10-09T17:59:22.173Z,5.43
2022-10-09T18:01:49.325Z,4.57
2022-10-09T18:04:17.171Z,3.88
2022-10-09T18:06:44.463Z,3.70
2022-10-09T18:09:12.298Z,3.33
2022-10-09T18:11:39.684Z,4.03
2022-10-09T18:14:07.428Z,4.00
2022-10-09T18:16:38.038Z,3.40
2022-10-09T18:19:08.160Z,4.03
2022-10-09T18:21:35.667Z,4.10
2022-10-09T18:24:02.787Z,3.78
2022-10-09T18:26:29.925Z,3.22
2022-10-09T18:28:57.051Z,4.55
2022-10-09T18:31:24.277Z,5.18
2022-10-09T18:33:52.170Z,5.50
2022-10-09T18:36:21.200Z,5.38
2022-10-09T18:38:49.969Z,5.38
2022-10-09T18:41:18.244Z,4.72
2022-10-09T18:43:45.399Z,5.30
2022-10-09T18:46:12.553Z,5.63
2022-10-09T18:48:40.995Z,6.38
2022-10-09T18:51:10.058Z,5.75
2022-10-09T18:53:42.317Z,4.32
2022-10-09T18:56:10.454Z,4.80
2022-10-09T18:58:38.626Z,4.53
2022-10-09T19:01:07.659Z,3.35
2022-10-09T19:03:36.571Z,3.65
2022-10-09T19:06:04.709Z,3.70
2022-10-09T19:08:31.897Z,3.67
2022-10-09T19:10:59.043Z,3.72
2022-10-09T19:13:26.230Z,4.07
2022-10-09T19:15:54.454Z,3.75
2022-10-09T19:18:22.104Z,3.75
2022-10-09T19:20:49.731Z,3.75
2022-10-09T19:23:16.946Z,4.05
2022-10-09T19:25:51.136Z,3.90
2022-10-09T19:28:18.672Z,4.07
2022-10-09T19:30:46.635Z,4.55
2022-10-09T19:33:14.167Z,4.13
2022-10-09T19:35:45.185Z,4.25
2022-10-09T19:38:12.996Z,4.10
2022-10-09T19:40:40.120Z,4.53
2022-10-09T19:43:07.314Z,4.68
2022-10-09T19:45:34.446Z,4.30
2022-10-09T19:48:01.558Z,4.05
2022-10-09T19:50:28.686Z,4.32
2022-10-09T19:52:55.829Z,4.65
2022-10-09T19:55:24.747Z,4.72
2022-10-09T19:57:53.595Z,4.57
2022-10-09T20:00:20.709Z,4.70
2022-10-09T20:02:48.104Z,4.22
2022-10-09T20:05:15.475Z,4.68
2022-10-09T20:07:42.562Z,4.55
2022-10-09T20:10:09.729Z,4.40
2022-10-09T20:12:36.844Z,4.70
2022-10-09T20:15:04.497Z,4.22
2022-10-09T20:17:31.657Z,3.88
2022-10-09T20:19:58.768Z,4.38
2022-10-09T20:22:25.899Z,4.38
2022-10-09T20:24:53.518Z,4.68
2022-10-09T20:27:20.873Z,5.18
2022-10-09T20:29:48.162Z,6.47
2022-10-09T20:32:15.286Z,7.05
2022-10-09T20:34:42.383Z,5.95
2022-10-09T20:37:09.496Z,4.30
2022-10-09T20:39:36.567Z,4.78
2022-10-09T20:42:04.134Z,4.65
2022-10-09T20:44:31.206Z,10.02
2022-10-09T20:46:58.308Z,5.68
2022-10-09T20:49:25.391Z,4.50
2022-10-09T20:51:56.756Z,4.80
2022-10-09T20:54:24.013Z,4.80
2022-10-09T20:56:51.500Z,5.03
2022-10-09T20:59:18.860Z,5.07
2022-10-09T21:01:46.109Z,4.90
2022-10-09T21:04:14.720Z,5.32
2022-10-09T21:06:41.945Z,4.95
2022-10-09T21:09:09.047Z,5.18
2022-10-09T21:11:36.194Z,5.82
2022-10-09T21:14:03.776Z,8.10
2022-10-09T21:16:30.926Z,6.90
2022-10-09T21:18:59.889Z,7.30
2022-10-09T21:21:27.742Z,6.70
2022-10-09T21:23:55.891Z,8.95
2022-10-09T21:26:23.466Z,7.47
2022-10-09T21:28:53.325Z,8.45
2022-10-09T21:31:26.203Z,7.15
2022-10-09T21:33:53.303Z,7.63
2022-10-09T21:36:26.470Z,7.72
2022-10-09T21:38:53.519Z,7.05
2022-10-09T21:41:20.592Z,8.80
2022-10-09T21:43:47.680Z,7.43
2022-10-09T21:46:14.827Z,7.80
2022-10-09T21:48:41.887Z,8.68
2022-10-09T21:51:08.971Z,7.65
2022-10-09T21:53:36.072Z,7.32
2022-10-09T21:56:03.900Z,7.05
2022-10-09T21:58:31.208Z,6.03
2022-10-09T22:00:59.245Z,6.47
2022-10-09T22:03:27.183Z,7.80
2022-10-09T22:05:54.555Z,6.65
2022-10-09T22:08:21.860Z,8.25
2022-10-09T22:10:49.610Z,9.98
2022-10-09T22:13:17.309Z,8.00
2022-10-09T22:15:50.164Z,9.30
2022-10-09T22:18:19.107Z,7.68
2022-10-09T22:20:49.067Z,7.40
2022-10-09T22:23:16.668Z,5.45
2022-10-09T22:25:43.737Z,6.50
2022-10-09T22:28:10.838Z,5.90
2022-10-09T22:30:37.940Z,6.22
2022-10-09T22:33:05.153Z,6.60
2022-10-09T22:35:32.211Z,7.18
2022-10-09T22:37:59.302Z,6.15
2022-10-09T22:40:26.440Z,5.55
2022-10-09T22:42:53.769Z,6.10
2022-10-09T22:45:20.927Z,6.03
2022-10-09T22:47:48.306Z,6.07
2022-10-09T22:50:15.404Z,5.80
2022-10-09T22:52:42.614Z,5.75
2022-10-09T22:55:09.758Z,5.82
2022-10-09T22:57:36.955Z,5.97
2022-10-09T23:00:05.485Z,6.53
2022-10-09T23:02:32.604Z,5.45
2022-10-09T23:04:59.696Z,5.50
2022-10-09T23:07:26.791Z,5.10
2022-10-09T23:09:53.864Z,5.63
2022-10-09T23:12:20.963Z,5.50
2022-10-09T23:14:48.106Z,5.60
2022-10-09T23:17:15.193Z,5.95
2022-10-09T23:19:42.275Z,5.60
2022-10-09T23:22:09.348Z,6.07
2022-10-09T23:24:36.455Z,5.75
2022-10-09T23:27:03.518Z,5.53
2022-10-09T23:29:30.607Z,5.57
2022-10-09T23:31:57.669Z,5.82
2022-10-09T23:34:24.767Z,6.13
2022-10-09T23:36:51.840Z,6.88
2022-10-09T23:39:18.986Z,7.75
2022-10-09T23:41:46.061Z,6.18
2022-10-09T23:44:13.147Z,7.68
2022-10-09T23:46:40.419Z,7.72
2022-10-09T23:49:07.667Z,6.68
2022-10-09T23:51:34.769Z,6.32
2022-10-09T23:54:01.874Z,6.60
2022-10-09T23:56:30.818Z,6.13
2022-10-09T23:58:58.596Z,6.03
